Time;durP1;ratioP1;P1;durP2;ratioP2;P2;SDS_P1;SDS_P2;PMS_P1;PMS_P2;Temp;Humidity;BMP_temperature;BMP_pressure;BME280_temperature;BME280_humidity;BME280_pressure;Samples;Min_cycle;Max_cycle;Signal;HPM_P1;HPM_P2
2023/03/29 00:00:48;;;;;;;11.30;5.32;;;;;;;6.00;79.57;98637.53;5081715;28;20036;-37
2023/03/29 00:03:14;;;;;;;8.00;4.95;;;;;;;6.08;79.55;98625.22;5076295;28;20081;-39
2023/03/29 00:05:40;;;;;;;8.82;4.88;;;;;;;6.17;79.62;98622.34;5074127;28;20035;-38
2023/03/29 00:08:07;;;;;;;7.90;4.90;;;;;;;6.24;79.38;98616.06;5069899;28;20035;-37
2023/03/29 00:10:34;;;;;;;8.02;5.07;;;;;;;6.30;78.38;98609.84;5084546;28;20150;-39
2023/03/29 00:13:00;;;;;;;8.23;4.88;;;;;;;6.30;78.81;98610.72;5065689;28;20078;-37
2023/03/29 00:15:26;;;;;;;13.90;4.65;;;;;;;6.29;77.98;98613.34;5099769;28;20051;-37
2023/03/29 00:17:52;;;;;;;9.27;5.07;;;;;;;6.30;77.99;98615.03;5080902;28;20093;-38
2023/03/29 00:20:18;;;;;;;9.55;5.57;;;;;;;6.27;78.40;98597.91;5095746;28;20809;-39
2023/03/29 00:22:45;;;;;;;9.65;5.38;;;;;;;6.30;77.87;98613.28;5074694;28;20036;-38
2023/03/29 00:25:12;;;;;;;10.13;5.30;;;;;;;6.22;77.89;98592.06;5064438;28;20039;-37
2023/03/29 00:27:39;;;;;;;7.13;4.70;;;;;;;6.36;77.51;98607.06;5067169;28;20159;-38
2023/03/29 00:30:06;;;;;;;9.05;5.20;;;;;;;6.33;78.00;98602.84;5065593;28;20090;-39
2023/03/29 00:32:33;;;;;;;8.25;5.10;;;;;;;6.38;77.69;98606.09;5071698;28;20036;-38
2023/03/29 00:35:04;;;;;;;6.95;4.75;;;;;;;6.43;77.68;98605.13;5079642;28;20046;-37
2023/03/29 00:37:31;;;;;;;7.50;4.63;;;;;;;6.46;77.32;98605.84;5083079;28;20036;-38
2023/03/29 00:39:57;;;;;;;8.27;5.30;;;;;;;6.49;76.90;98602.34;5073155;28;20044;-37
2023/03/29 00:42:25;;;;;;;7.15;4.65;;;;;;;6.50;77.33;98589.34;5045206;28;20056;-37
2023/03/29 00:44:52;;;;;;;9.20;4.43;;;;;;;6.51;76.83;98585.03;5070292;28;20044;-38
2023/03/29 00:47:29;;;;;;;9.10;4.90;;;;;;;6.52;77.14;98584.13;5086574;28;20050;-36
2023/03/29 00:49:59;;;;;;;8.20;4.80;;;;;;;6.52;76.85;98592.72;5051894;28;20131;-38
2023/03/29 00:52:29;;;;;;;;;;;;;;;6.55;76.76;98578.84;5050628;28;20519;-37
2023/03/29 00:54:58;;;;;;;8.27;4.05;;;;;;;6.51;76.49;98578.13;5067121;28;19916;-38
2023/03/29 00:57:26;;;;;;;7.93;4.25;;;;;;;6.46;76.43;98574.88;5089174;28;20032;-37
2023/03/29 00:59:51;;;;;;;5.95;3.80;;;;;;;6.50;76.56;98581.59;5061530;28;20052;-38
2023/03/29 01:02:21;;;;;;;6.80;4.20;;;;;;;6.51;75.85;98591.03;5084056;28;20036;-38
2023/03/29 01:04:55;;;;;;;6.88;4.20;;;;;;;6.55;76.05;98594.34;5068890;28;20071;-38
2023/03/29 01:07:24;;;;;;;7.43;4.07;;;;;;;6.54;75.87;98587.53;5059357;28;20041;-37
2023/03/29 01:09:58;;;;;;;6.40;4.18;;;;;;;6.48;76.20;98574.81;5069263;28;20471;-37
2023/03/29 01:12:31;;;;;;;8.18;4.03;;;;;;;6.37;75.67;98581.22;5046477;28;20043;-38
2023/03/29 01:15:03;;;;;;;6.50;3.85;;;;;;;6.13;75.80;98548.50;5078809;28;20549;-38
2023/03/29 01:17:30;;;;;;;5.40;3.83;;;;;;;6.19;76.57;98574.09;5083525;28;20040;-38
2023/03/29 01:20:09;;;;;;;6.32;4.05;;;;;;;6.01;76.92;98561.84;5061387;28;20048;-38
2023/03/29 01:23:01;;;;;;;7.43;4.32;;;;;;;6.14;76.61;98580.31;5082450;27;20047;-38
2023/03/29 01:25:53;;;;;;;6.68;4.15;;;;;;;6.04;76.65;98550.56;5048089;28;20041;-38
2023/03/29 01:28:23;;;;;;;11.88;4.65;;;;;;;6.24;76.66;98582.53;5074322;28;20044;-38
2023/03/29 01:31:07;;;;;;;5.55;3.92;;;;;;;6.29;76.74;98570.28;5078533;28;20059;-37
2023/03/29 01:33:44;;;;;;;5.38;3.80;;;;;;;6.29;76.08;98557.41;5081254;28;20040;-37
2023/03/29 01:36:18;;;;;;;6.80;4.10;;;;;;;6.29;76.16;98553.97;5090264;28;20044;-38
2023/03/29 01:38:59;;;;;;;9.45;4.03;;;;;;;6.26;76.27;98544.63;5093050;28;20534;-37
2023/03/29 01:41:39;;;;;;;8.23;4.07;;;;;;;6.24;75.94;98543.81;5075290;28;20041;-37
2023/03/29 01:44:29;;;;;;;6.20;3.80;;;;;;;6.21;76.53;98535.34;5078516;28;20036;-38
2023/03/29 01:47:27;;;;;;;7.03;3.83;;;;;;;6.19;76.68;98535.38;5065707;28;20033;-38
2023/03/29 01:50:32;;;;;;;5.65;3.55;;;;;;;6.15;76.42;98527.81;5063578;28;20075;-38
2023/03/29 01:53:02;;;;;;;6.97;4.07;;;;;;;6.20;76.28;98539.66;5058985;28;20048;-39
2023/03/29 01:55:32;;;;;;;5.88;3.58;;;;;;;6.22;76.35;98543.03;5085482;28;20113;-38
2023/03/29 01:58:00;;;;;;;7.75;4.10;;;;;;;6.25;76.24;98542.06;5077252;28;20041;-37
2023/03/29 02:00:28;;;;;;;7.55;3.97;;;;;;;6.15;75.97;98515.75;5084779;28;20071;-37
2023/03/29 02:02:58;;;;;;;11.38;4.22;;;;;;;6.35;76.27;98533.94;5078811;28;20049;-37
2023/03/29 02:05:27;;;;;;;7.78;3.78;;;;;;;6.42;75.95;98538.91;5049329;28;20047;-38
2023/03/29 02:07:59;;;;;;;8.73;3.80;;;;;;;6.47;75.49;98526.66;5065563;28;20041;-39
2023/03/29 02:10:26;;;;;;;6.40;3.80;;;;;;;6.25;75.34;98480.97;5085614;28;20127;-38
2023/03/29 02:12:52;;;;;;;8.70;3.65;;;;;;;6.54;74.98;98518.63;5064274;28;20044;-37
2023/03/29 02:15:20;;;;;;;5.47;3.60;;;;;;;6.53;74.88;98518.72;5079547;28;20070;-37
2023/03/29 02:17:48;;;;;;;7.63;3.65;;;;;;;6.22;75.20;98478.53;5069413;28;20040;-37
2023/03/29 02:20:19;;;;;;;5.80;3.93;;;;;;;6.48;75.02;98512.88;5036320;28;20122;-37
2023/03/29 02:22:51;;;;;;;5.97;3.83;;;;;;;6.46;75.13;98502.59;5075619;28;20036;-38
2023/03/29 02:25:18;;;;;;;6.82;4.18;;;;;;;6.25;75.52;98462.91;5089875;28;20040;-40
2023/03/29 02:27:44;;;;;;;7.07;3.90;;;;;;;6.45;75.56;98506.06;5067918;28;20056;-37
2023/03/29 02:30:12;;;;;;;8.60;4.13;;;;;;;6.47;75.55;98508.59;5092249;28;20146;-38
2023/03/29 02:32:48;;;;;;;5.88;3.90;;;;;;;6.47;75.45;98495.69;5093905;28;20297;-38
2023/03/29 02:35:33;;;;;;;7.72;4.00;;;;;;;6.46;75.44;98487.09;5088931;28;20035;-38
2023/03/29 02:38:02;;;;;;;6.55;4.10;;;;;;;6.46;75.39;98505.16;5074228;28;20036;-37
2023/03/29 02:40:29;;;;;;;6.97;4.13;;;;;;;6.50;75.21;98495.56;5072302;28;20070;-37
2023/03/29 02:42:56;;;;;;;5.35;3.47;;;;;;;6.51;75.08;98489.50;5078831;28;20056;-37
2023/03/29 02:45:23;;;;;;;6.70;4.28;;;;;;;6.53;74.89;98491.16;5055035;28;20078;-37
2023/03/29 02:47:53;;;;;;;6.53;3.90;;;;;;;6.38;75.15;98458.97;5067242;28;20099;-39
2023/03/29 02:50:19;;;;;;;6.07;3.97;;;;;;;6.55;74.60;98479.00;5055489;28;20039;-38
2023/03/29 02:52:52;;;;;;;7.25;3.65;;;;;;;6.55;74.56;98476.44;5050215;28;20095;-38
2023/03/29 02:55:21;;;;;;;6.38;3.95;;;;;;;6.38;75.00;98440.91;5085134;28;20040;-37
2023/03/29 02:57:47;;;;;;;6.70;3.80;;;;;;;6.54;75.04;98476.50;5052072;28;20043;-38
2023/03/29 03:00:13;;;;;;;7.30;4.07;;;;;;;6.31;75.28;98436.88;5089795;28;20055;-38
2023/03/29 03:02:40;;;;;;;7.60;4.35;;;;;;;6.52;74.88;98473.97;5053088;28;20032;-37
2023/03/29 03:05:08;;;;;;;7.83;4.50;;;;;;;6.39;75.16;98454.66;5086864;28;20056;-38
2023/03/29 03:07:34;;;;;;;9.00;4.40;;;;;;;6.55;75.29;98471.25;5055393;28;20051;-38
2023/03/29 03:10:00;;;;;;;6.38;3.95;;;;;;;6.55;74.90;98457.50;5078429;28;20499;-37
2023/03/29 03:12:26;;;;;;;10.20;4.43;;;;;;;6.57;74.77;98471.22;5086387;28;20043;-37
2023/03/29 03:14:53;;;;;;;5.72;3.70;;;;;;;6.59;74.73;98472.00;5077704;28;20048;-39
2023/03/29 03:17:19;;;;;;;8.20;3.90;;;;;;;6.62;74.94;98458.97;5068535;28;20068;-37
2023/03/29 03:19:46;;;;;;;5.88;3.53;;;;;;;6.61;75.08;98455.53;5080432;28;20415;-38
2023/03/29 03:22:12;;;;;;;6.65;4.05;;;;;;;6.63;74.72;98458.06;5101395;28;20127;-38
2023/03/29 03:24:38;;;;;;;6.68;3.85;;;;;;;6.65;74.91;98453.69;5095406;28;20122;-38
2023/03/29 03:27:05;;;;;;;8.30;4.05;;;;;;;6.64;74.72;98458.03;5089978;28;20523;-38
2023/03/29 03:29:31;;;;;;;5.65;3.67;;;;;;;6.65;74.25;98454.50;5081232;28;20092;-38
2023/03/29 03:31:57;;;;;;;5.35;3.67;;;;;;;6.68;74.65;98457.00;5081709;28;20036;-37
2023/03/29 03:35:02;;;;;;;8.75;3.95;;;;;;;6.56;74.12;98425.63;5084943;28;20040;-37
2023/03/29 03:37:28;;;;;;;9.73;3.75;;;;;;;6.56;73.85;98420.47;5086603;28;20097;-38
2023/03/29 03:39:55;;;;;;;5.50;3.83;;;;;;;6.85;74.18;98451.19;5080963;28;20483;-38
2023/03/29 03:42:22;;;;;;;6.82;3.60;;;;;;;6.89;73.56;98454.47;5068149;28;20090;-38
2023/03/29 03:44:48;;;;;;;6.20;3.70;;;;;;;6.70;73.33;98419.03;5064648;28;20047;-39
2023/03/29 03:47:43;;;;;;;6.47;3.78;;;;;;;6.87;73.69;98459.69;5084375;28;20474;-38
2023/03/29 03:50:22;;;;;;;6.72;3.53;;;;;;;6.88;73.02;98456.22;5066065;28;20047;-38
2023/03/29 03:52:48;;;;;;;6.97;3.42;;;;;;;6.91;72.93;98443.16;5082305;28;20048;-38
2023/03/29 03:55:15;;;;;;;7.30;3.92;;;;;;;6.83;73.07;98424.56;5073208;28;20044;-39
2023/03/29 03:57:50;;;;;;;5.80;3.55;;;;;;;7.04;72.90;98443.53;5084509;28;20176;-39
2023/03/29 04:00:19;;;;;;;13.60;4.00;;;;;;;7.11;72.79;98453.59;5083732;28;20453;-38
2023/03/29 04:02:53;;;;;;;8.52;4.20;;;;;;;6.91;72.72;98394.09;5066592;28;20139;-39
2023/03/29 04:05:19;;;;;;;6.40;3.65;;;;;;;7.18;71.87;98434.31;5086611;28;20036;-38
2023/03/29 04:07:46;;;;;;;5.80;3.45;;;;;;;7.22;71.70;98430.69;5085891;28;20040;-37
2023/03/29 04:10:41;;;;;;;5.85;3.67;;;;;;;7.32;71.49;98430.34;5072601;28;20538;-38
2023/03/29 04:13:16;;;;;;;7.75;3.75;;;;;;;7.24;71.56;98404.81;5078949;28;20079;-39
2023/03/29 04:16:00;;;;;;;7.60;3.92;;;;;;;7.50;71.42;98440.75;5066108;28;20074;-39
2023/03/29 04:18:27;;;;;;;8.25;3.60;;;;;;;7.54;70.75;98428.53;5100108;28;20488;-37
2023/03/29 04:20:55;;;;;;;;;;;;;;;7.58;70.66;98424.94;5083576;28;20043;-39
2023/03/29 04:23:24;;;;;;;13.93;2.90;;;;;;;7.63;70.72;98434.19;5085938;28;19967;-37
2023/03/29 04:25:55;;;;;;;6.10;3.65;;;;;;;7.69;69.97;98432.22;5051337;28;20591;-40
2023/03/29 04:28:42;;;;;;;6.75;3.65;;;;;;;7.74;69.69;98436.31;5062745;28;20055;-39
2023/03/29 04:31:22;;;;;;;11.65;3.72;;;;;;;7.83;69.48;98422.13;5040123;28;20149;-38
2023/03/29 04:34:12;;;;;;;10.20;3.60;;;;;;;7.93;68.96;98420.81;5035673;28;20511;-38
2023/03/29 04:36:38;;;;;;;6.35;3.40;;;;;;;7.80;68.97;98391.22;5066607;28;20051;-39
2023/03/29 04:39:09;;;;;;;9.20;3.72;;;;;;;8.00;68.70;98414.47;5080907;28;20073;-38
2023/03/29 04:41:35;;;;;;;5.43;3.53;;;;;;;8.03;68.15;98407.41;5076473;28;20079;-38
2023/03/29 04:44:07;;;;;;;9.35;3.70;;;;;;;8.14;68.00;98406.09;5067207;28;20070;-39
2023/03/29 04:46:34;;;;;;;12.45;3.70;;;;;;;8.20;67.87;98411.84;5066734;28;20068;-38
2023/03/29 04:49:18;;;;;;;7.18;3.45;;;;;;;8.24;67.52;98409.94;5077349;28;20039;-38
2023/03/29 04:51:48;;;;;;;9.38;3.63;;;;;;;8.23;67.37;98418.59;5073636;28;20691;-37
2023/03/29 04:54:17;;;;;;;;;;;;;;;8.19;67.09;98420.50;5050896;28;20507;-37
2023/03/29 04:57:07;;;;;;;5.65;3.28;;;;;;;8.11;66.65;98417.44;5068743;28;20011;-46
2023/03/29 04:59:43;;;;;;;9.15;3.40;;;;;;;8.07;66.89;98416.72;5084352;28;20052;-36
2023/03/29 05:02:31;;;;;;;7.43;3.67;;;;;;;8.06;66.96;98409.84;5065501;28;20075;-37
2023/03/29 05:04:58;;;;;;;6.30;3.07;;;;;;;8.20;66.62;98422.19;5083645;28;20037;-37
2023/03/29 05:07:24;;;;;;;6.93;3.00;;;;;;;8.21;66.42;98408.34;5059721;28;20044;-38
2023/03/29 05:09:50;;;;;;;7.55;3.17;;;;;;;8.25;65.92;98394.34;5049675;28;20044;-35
2023/03/29 05:12:16;;;;;;;7.07;3.45;;;;;;;8.43;65.52;98414.22;5066045;28;20466;-37
2023/03/29 05:14:53;;;;;;;7.90;3.90;;;;;;;8.49;65.37;98403.59;5070664;28;20159;-36
2023/03/29 05:17:21;;;;;;;8.20;3.50;;;;;;;8.65;65.23;98405.47;5085054;28;20119;-37
2023/03/29 05:19:48;;;;;;;11.90;3.83;;;;;;;8.77;64.69;98407.50;5049760;28;20039;-40
2023/03/29 05:22:15;;;;;;;5.68;3.17;;;;;;;8.85;64.59;98413.13;5088475;28;20063;-39
2023/03/29 05:24:42;;;;;;;9.50;3.33;;;;;;;8.90;64.68;98417.19;5073909;28;20040;-39
2023/03/29 05:27:18;;;;;;;11.23;3.85;;;;;;;8.89;64.23;98410.34;5057175;28;20064;-39
2023/03/29 05:29:56;;;;;;;6.90;3.40;;;;;;;8.97;64.46;98398.75;5071714;28;20135;-39
2023/03/29 05:32:43;;;;;;;6.50;3.00;;;;;;;9.05;64.03;98405.25;5075845;28;20067;-38
2023/03/29 05:35:13;;;;;;;15.23;3.90;;;;;;;9.08;63.42;98397.31;5072511;28;20051;-37
2023/03/29 05:37:39;;;;;;;5.53;3.53;;;;;;;9.15;63.56;98397.88;5092061;28;20040;-38
2023/03/29 05:40:08;;;;;;;9.65;3.25;;;;;;;9.17;63.73;98402.06;5092173;28;20040;-38
2023/03/29 05:42:55;;;;;;;7.82;3.20;;;;;;;9.20;63.34;98404.50;5069995;28;20533;-40
2023/03/29 05:45:21;;;;;;;7.03;3.10;;;;;;;9.11;63.09;98383.34;5076870;28;20036;-39
2023/03/29 05:47:47;;;;;;;7.45;3.55;;;;;;;9.40;62.79;98408.72;5076549;28;20059;-39
2023/03/29 05:50:14;;;;;;;8.57;3.20;;;;;;;9.53;62.25;98407.16;5061076;28;20044;-38
2023/03/29 05:52:40;;;;;;;12.57;3.72;;;;;;;9.81;61.92;98397.97;5095744;28;20049;-37
2023/03/29 05:55:06;;;;;;;7.60;3.22;;;;;;;10.11;61.26;98402.41;5072624;28;20052;-38
2023/03/29 05:57:39;;;;;;;9.85;3.17;;;;;;;10.30;60.28;98414.44;5054441;28;20040;-40
2023/03/29 06:00:20;;;;;;;10.18;3.83;;;;;;;10.28;60.36;98400.69;5081224;28;20047;-40
2023/03/29 06:02:47;;;;;;;7.40;3.25;;;;;;;10.19;59.46;98376.91;5090322;28;20032;-37
2023/03/29 06:05:14;;;;;;;6.57;3.33;;;;;;;10.23;59.35;98385.38;5076344;28;20041;-38
2023/03/29 06:07:56;;;;;;;7.68;3.15;;;;;;;10.26;59.43;98398.16;5073755;28;20098;-39
2023/03/29 06:10:42;;;;;;;6.18;3.40;;;;;;;10.39;58.84;98400.97;5077299;28;20098;-39
2023/03/29 06:13:36;;;;;;;5.22;3.33;;;;;;;10.52;58.79;98409.78;5066431;28;20423;-38
2023/03/29 06:16:03;;;;;;;8.43;3.20;;;;;;;10.52;58.84;98402.00;5091870;28;20048;-39
2023/03/29 06:18:29;;;;;;;9.88;3.22;;;;;;;10.55;58.42;98396.63;5107484;27;20147;-39
2023/03/29 06:20:55;;;;;;;7.63;3.97;;;;;;;10.51;58.25;98398.56;5093150;27;20491;-39
2023/03/29 06:23:24;;;;;;;8.43;3.28;;;;;;;10.56;58.66;98385.31;5065757;28;20131;-39
2023/03/29 06:25:51;;;;;;;9.15;3.17;;;;;;;10.50;58.04;98389.06;5103854;28;20093;-40
2023/03/29 06:28:18;;;;;;;13.57;4.57;;;;;;;10.34;58.04;98379.59;5083428;28;20032;-38
2023/03/29 06:30:45;;;;;;;6.10;2.97;;;;;;;10.47;58.23;98396.16;5062926;28;20051;-39
2023/03/29 06:33:13;;;;;;;13.45;3.38;;;;;;;10.45;58.08;98392.84;5096645;28;20044;-39
2023/03/29 06:35:44;;;;;;;9.90;3.00;;;;;;;10.15;58.33;98357.16;5085021;28;20078;-38
2023/03/29 06:38:15;;;;;;;7.13;3.28;;;;;;;10.33;58.14;98378.75;5087283;28;20044;-39
2023/03/29 06:41:06;;;;;;;12.48;2.60;;;;;;;10.37;57.75;98384.59;5077200;28;20129;-38
2023/03/29 06:43:49;;;;;;;6.32;3.28;;;;;;;10.30;57.68;98388.47;5062775;28;20789;-39
2023/03/29 06:46:15;;;;;;;7.35;3.15;;;;;;;10.28;57.87;98393.75;5085050;28;20105;-40
2023/03/29 06:48:52;;;;;;;12.30;3.42;;;;;;;10.32;57.54;98386.63;5076219;28;20048;-40
2023/03/29 06:51:20;;;;;;;10.05;4.35;;;;;;;10.35;58.08;98383.88;5090232;28;20040;-39
2023/03/29 06:53:46;;;;;;;11.65;3.75;;;;;;;10.37;57.58;98387.19;5050948;28;20040;-40
2023/03/29 06:56:13;;;;;;;12.00;3.72;;;;;;;10.35;58.02;98389.06;5088763;28;20044;-40
2023/03/29 06:58:41;;;;;;;10.00;3.88;;;;;;;10.22;58.58;98375.03;5096429;28;20045;-39
2023/03/29 07:01:25;;;;;;;6.55;2.97;;;;;;;10.08;59.46;98386.16;5064422;28;20032;-40
2023/03/29 07:04:06;;;;;;;10.23;2.90;;;;;;;9.95;60.02;98385.09;5097883;28;20040;-39
2023/03/29 07:06:47;;;;;;;5.30;3.10;;;;;;;9.86;60.42;98391.63;5085161;28;20503;-40
2023/03/29 07:09:18;;;;;;;4.80;2.72;;;;;;;9.82;61.12;98389.28;5082528;28;20047;-38
2023/03/29 07:12:04;;;;;;;5.85;2.83;;;;;;;9.62;61.57;98391.16;5082052;28;20040;-39
2023/03/29 07:14:30;;;;;;;4.07;2.90;;;;;;;9.59;61.96;98393.88;5081389;28;20043;-39
2023/03/29 07:16:57;;;;;;;8.70;3.25;;;;;;;9.56;62.38;98386.28;5084562;28;20423;-39
2023/03/29 07:19:35;;;;;;;9.00;4.65;;;;;;;9.57;62.51;98397.50;5052314;28;20052;-39
2023/03/29 07:22:15;;;;;;;10.40;4.78;;;;;;;9.46;63.22;98389.41;5082221;28;20442;-39
2023/03/29 07:24:49;;;;;;;5.97;3.13;;;;;;;9.35;64.06;98395.97;5067870;28;20051;-39
2023/03/29 07:27:16;;;;;;;7.93;3.13;;;;;;;9.17;64.37;98370.09;5049950;28;20065;-40
2023/03/29 07:29:48;;;;;;;6.47;3.03;;;;;;;9.26;64.73;98393.81;5078232;28;20078;-39
2023/03/29 07:32:16;;;;;;;5.18;3.13;;;;;;;9.20;65.48;98393.31;5064290;28;20044;-40
2023/03/29 07:34:42;;;;;;;7.18;3.90;;;;;;;9.27;65.78;98390.31;5083441;28;20071;-40
2023/03/29 07:37:13;;;;;;;7.35;3.80;;;;;;;9.35;66.18;98388.19;5081501;28;20036;-39
2023/03/29 07:39:42;;;;;;;6.05;3.63;;;;;;;9.46;66.31;98397.19;5093669;28;20503;-38
2023/03/29 07:42:35;;;;;;;4.20;2.50;;;;;;;9.46;65.62;98395.44;5002953;28;1809965;-38
2023/03/29 07:45:03;;;;;;;4.97;3.03;;;;;;;9.44;65.75;98396.41;5096488;27;20043;-39
2023/03/29 07:47:34;;;;;;;4.75;3.10;;;;;;;9.36;66.01;98404.59;5077049;28;20041;-40
2023/03/29 07:50:01;;;;;;;4.70;3.53;;;;;;;9.44;66.03;98397.25;5060522;28;20163;-39
2023/03/29 07:52:29;;;;;;;5.75;4.05;;;;;;;9.64;66.03;98398.84;5063345;28;20097;-40
2023/03/29 07:54:55;;;;;;;8.00;4.05;;;;;;;9.91;65.87;98401.75;5044086;28;20511;-40
2023/03/29 07:57:26;;;;;;;4.43;2.97;;;;;;;10.14;65.74;98404.84;5060486;28;20040;-40
2023/03/29 07:59:54;;;;;;;5.75;3.40;;;;;;;10.20;64.90;98386.34;5071337;28;20059;-40
2023/03/29 08:02:26;;;;;;;6.13;3.20;;;;;;;10.41;64.73;98384.38;5070133;28;20921;-39
2023/03/29 08:04:56;;;;;;;6.13;3.22;;;;;;;10.49;64.63;98391.75;5085936;28;22126;-40
2023/03/29 08:07:46;;;;;;;5.32;3.00;;;;;;;10.27;64.29;98389.47;5065131;28;20142;-40
2023/03/29 08:10:20;;;;;;;5.25;2.92;;;;;;;10.18;64.41;98380.41;5080231;28;20068;-39
2023/03/29 08:13:02;;;;;;;7.60;3.35;;;;;;;10.32;63.72;98399.59;5101395;28;20902;-40
2023/03/29 08:15:44;;;;;;;4.72;2.80;;;;;;;10.43;63.77;98398.13;5081465;27;20097;-38
2023/03/29 08:18:20;;;;;;;5.28;3.10;;;;;;;10.43;64.22;98405.06;5077092;27;20454;-39
2023/03/29 08:20:46;;;;;;;8.98;3.15;;;;;;;10.41;63.31;98399.13;5081150;28;20039;-40
2023/03/29 08:23:12;;;;;;;6.75;3.17;;;;;;;10.42;63.56;98398.19;5083571;28;20512;-40
2023/03/29 08:25:59;;;;;;;11.45;4.03;;;;;;;10.32;63.57;98381.41;5069759;28;20470;-39
2023/03/29 08:28:26;;;;;;;8.77;5.05;;;;;;;10.42;63.70;98387.78;5086151;28;20044;-39
2023/03/29 08:30:54;;;;;;;6.35;3.63;;;;;;;10.32;64.01;98391.81;5063091;28;20043;-40
2023/03/29 08:33:21;;;;;;;4.47;3.25;;;;;;;10.37;63.85;98392.41;5068824;28;20055;-40
2023/03/29 08:35:55;;;;;;;6.40;3.40;;;;;;;10.51;64.10;98403.75;5098707;27;20043;-39
2023/03/29 08:38:29;;;;;;;8.15;3.88;;;;;;;10.65;63.71;98381.34;5094925;27;20040;-39
2023/03/29 08:40:55;;;;;;;7.63;3.50;;;;;;;10.85;63.96;98386.28;5050613;28;20423;-39
2023/03/29 08:43:38;;;;;;;11.30;6.68;;;;;;;10.86;63.18;98380.16;5063972;28;20043;-39
2023/03/29 08:46:30;;;;;;;21.35;11.02;;;;;;;10.84;63.33;98371.59;5086070;28;20039;-40
2023/03/29 08:49:01;;;;;;;5.95;3.50;;;;;;;10.53;63.11;98354.28;5066259;28;20040;-40
2023/03/29 08:51:32;;;;;;;8.07;3.17;;;;;;;10.70;62.68;98376.72;5065618;28;20043;-39
2023/03/29 08:54:23;;;;;;;6.32;4.00;;;;;;;10.67;62.92;98390.75;5078106;28;20047;-40
2023/03/29 08:57:48;;;;;;;5.72;2.95;;;;;;;10.58;63.46;98396.44;5043519;28;20081;-39
2023/03/29 09:00:51;;;;;;;5.80;3.22;;;;;;;10.33;64.18;98359.72;5078850;28;20046;-41
2023/03/29 09:03:22;;;;;;;7.45;3.60;;;;;;;10.49;64.93;98365.75;5081033;28;20036;-39
2023/03/29 09:05:53;;;;;;;8.35;3.40;;;;;;;10.44;65.29;98360.81;5082939;28;20062;-39
2023/03/29 09:08:23;;;;;;;4.93;3.20;;;;;;;10.41;65.88;98361.00;5062674;28;20051;-39
2023/03/29 09:10:59;;;;;;;7.53;3.72;;;;;;;10.32;66.63;98373.63;5092126;28;20122;-39
2023/03/29 09:13:43;;;;;;;5.75;3.40;;;;;;;10.15;67.46;98372.75;5081152;28;20163;-39
2023/03/29 09:16:30;;;;;;;11.02;4.18;;;;;;;10.09;68.91;98377.44;5057589;28;20075;-39
2023/03/29 09:19:13;;;;;;;6.70;3.80;;;;;;;10.11;69.76;98365.19;5062549;28;20079;-40
2023/03/29 09:21:58;;;;;;;5.57;3.40;;;;;;;9.98;70.07;98346.03;5082556;28;20035;-39
2023/03/29 09:24:33;;;;;;;6.05;3.58;;;;;;;10.10;69.84;98361.75;5060566;28;20074;-38
2023/03/29 09:27:31;;;;;;;8.63;3.65;;;;;;;10.18;70.21;98364.00;5062633;28;20044;-40
2023/03/29 09:30:32;;;;;;;7.90;4.03;;;;;;;10.26;70.61;98367.00;5071931;28;20174;-39
2023/03/29 09:33:14;;;;;;;7.50;4.00;;;;;;;10.29;70.85;98358.22;5081342;28;20075;-40
2023/03/29 09:36:09;;;;;;;8.80;4.85;;;;;;;10.25;71.01;98360.16;5071872;28;20051;-40
2023/03/29 09:38:39;;;;;;;10.48;5.82;;;;;;;10.19;71.10;98363.09;5077811;28;20397;-40
2023/03/29 09:41:21;;;;;;;8.45;3.85;;;;;;;10.14;71.17;98365.06;5074700;28;20047;-39
2023/03/29 09:43:49;;;;;;;8.23;4.53;;;;;;;10.06;71.71;98365.44;5076461;28;20040;-39
2023/03/29 09:46:24;;;;;;;10.73;4.30;;;;;;;9.96;72.59;98374.66;5062656;28;20068;-39
2023/03/29 09:48:51;;;;;;;7.95;3.75;;;;;;;9.81;73.09;98367.66;5047996;28;20032;-39
2023/03/29 09:51:20;;;;;;;9.02;3.83;;;;;;;9.62;73.33;98364.34;5084365;28;20051;-39
2023/03/29 09:53:46;;;;;;;7.25;4.32;;;;;;;9.38;74.58;98334.47;5058833;28;20040;-39
2023/03/29 09:56:28;;;;;;;10.93;5.50;;;;;;;9.58;75.56;98370.59;5087294;28;20062;-40
2023/03/29 09:59:10;;;;;;;7.72;5.13;;;;;;;9.43;76.36;98355.81;5064823;28;20044;-39
2023/03/29 10:01:38;;;;;;;8.55;5.10;;;;;;;9.45;77.80;98362.63;5056202;28;20060;-40
2023/03/29 10:04:07;;;;;;;11.68;6.45;;;;;;;9.47;78.27;98368.59;5065320;28;20040;-39
2023/03/29 10:06:34;;;;;;;12.48;5.70;;;;;;;9.42;78.42;98364.53;5074190;28;20041;-38
2023/03/29 10:09:01;;;;;;;9.90;5.30;;;;;;;9.37;78.76;98358.75;5068235;28;20040;-38
2023/03/29 10:11:38;;;;;;;8.88;4.60;;;;;;;9.45;79.18;98365.22;5070453;28;20059;-40
2023/03/29 10:14:40;;;;;;;11.13;5.72;;;;;;;9.36;80.00;98363.09;5077042;28;20094;-39
2023/03/29 10:17:21;;;;;;;6.72;4.47;;;;;;;9.35;80.39;98371.78;5041325;28;20039;-39
2023/03/29 10:19:50;;;;;;;8.07;4.07;;;;;;;9.37;80.46;98367.34;5065517;28;20055;-39
2023/03/29 10:22:20;;;;;;;9.88;4.88;;;;;;;9.35;80.99;98366.59;5061853;28;20050;-39
2023/03/29 10:24:51;;;;;;;8.65;3.97;;;;;;;9.28;81.08;98360.03;5076331;28;20059;-38
2023/03/29 10:27:22;;;;;;;10.88;5.22;;;;;;;9.19;82.05;98365.69;5080096;28;20062;-39
2023/03/29 10:29:49;;;;;;;8.50;4.75;;;;;;;9.15;82.54;98357.22;5078910;28;20032;-40
2023/03/29 10:32:36;;;;;;;7.43;4.80;;;;;;;9.13;82.68;98360.81;5043089;28;20388;-40
2023/03/29 10:35:08;;;;;;;10.07;5.90;;;;;;;9.13;83.61;98358.22;5083893;28;20044;-39
2023/03/29 10:37:34;;;;;;;8.95;4.53;;;;;;;9.19;83.51;98365.69;5087854;28;20067;-38
2023/03/29 10:40:00;;;;;;;9.63;4.97;;;;;;;9.19;83.57;98363.94;5084432;28;20052;-39
2023/03/29 10:42:27;;;;;;;7.45;4.10;;;;;;;9.20;83.75;98351.81;5088818;28;20048;-48
2023/03/29 10:44:55;;;;;;;5.90;4.38;;;;;;;9.20;84.05;98360.44;5054418;28;20839;-39
2023/03/29 10:47:22;;;;;;;10.10;4.70;;;;;;;9.18;84.49;98356.22;5087797;28;20060;-40
2023/03/29 10:49:53;;;;;;;7.05;4.60;;;;;;;9.10;84.30;98350.59;5086571;28;20297;-39
2023/03/29 10:52:20;;;;;;;6.78;4.50;;;;;;;9.10;84.63;98345.41;5086514;28;20043;-38
2023/03/29 10:54:48;;;;;;;10.48;4.70;;;;;;;8.90;84.87;98325.63;5078069;28;20048;-40
2023/03/29 10:57:44;;;;;;;9.95;5.20;;;;;;;8.82;85.39;98312.22;5071531;28;20059;-40
2023/03/29 11:00:51;;;;;;;9.95;5.15;;;;;;;9.00;85.78;98342.44;5074443;28;20520;-39
2023/03/29 11:03:44;;;;;;;7.25;4.35;;;;;;;8.99;85.78;98334.72;5055911;28;20080;-40
2023/03/29 11:06:46;;;;;;;8.63;4.90;;;;;;;8.95;86.24;98338.41;5039940;28;20036;-39
2023/03/29 11:09:24;;;;;;;5.88;4.35;;;;;;;8.94;86.80;98342.72;5039293;28;20037;-40
2023/03/29 11:12:08;;;;;;;7.70;4.78;;;;;;;8.97;87.00;98349.50;5064170;28;20033;-40
2023/03/29 11:14:54;;;;;;;10.43;4.75;;;;;;;8.92;87.48;98358.34;5037660;28;20152;-40
2023/03/29 11:17:26;;;;;;;6.20;3.75;;;;;;;8.81;88.51;98339.06;5067552;28;20092;-40
2023/03/29 11:19:58;;;;;;;11.05;4.90;;;;;;;8.72;89.36;98355.88;5059897;28;20577;-39
2023/03/29 11:22:31;;;;;;;9.63;3.67;;;;;;;8.70;90.14;98369.81;5043578;28;20134;-39
2023/03/29 11:25:23;;;;;;;6.78;4.65;;;;;;;8.39;90.93;98329.84;5062095;28;20059;-39
2023/03/29 11:28:17;;;;;;;7.25;4.82;;;;;;;8.46;92.20;98346.78;5062672;28;20137;-39
2023/03/29 11:30:50;;;;;;;8.43;4.45;;;;;;;8.42;92.89;98345.25;5027122;28;20574;-38
2023/03/29 11:33:41;;;;;;;7.47;4.20;;;;;;;8.36;93.40;98342.94;5028676;28;20044;-39
2023/03/29 11:36:17;;;;;;;9.43;4.40;;;;;;;8.26;93.42;98344.25;5086672;28;20066;-40
2023/03/29 11:38:49;;;;;;;6.22;4.15;;;;;;;8.29;93.59;98340.66;5085978;28;20062;-38
2023/03/29 11:41:18;;;;;;;4.50;3.47;;;;;;;8.26;94.16;98359.78;5085437;28;20036;-38
2023/03/29 11:43:51;;;;;;;8.35;4.72;;;;;;;8.22;93.80;98344.44;5085730;28;20366;-40
2023/03/29 11:46:22;;;;;;;7.15;4.20;;;;;;;8.20;94.01;98341.94;5086185;28;20043;-39
2023/03/29 11:49:08;;;;;;;7.45;4.57;;;;;;;8.21;94.59;98342.78;5064752;28;20040;-39
2023/03/29 11:51:43;;;;;;;6.68;4.53;;;;;;;8.17;94.75;98342.06;5076567;28;20048;-39
2023/03/29 11:54:17;;;;;;;5.82;4.13;;;;;;;8.14;95.40;98342.22;5051434;28;20036;-40
2023/03/29 11:56:55;;;;;;;8.05;4.28;;;;;;;8.15;95.98;98350.81;5077927;28;20424;-40
2023/03/29 11:59:44;;;;;;;7.55;5.15;;;;;;;8.12;96.64;98359.56;5059705;28;20066;-40
2023/03/29 12:02:13;;;;;;;9.48;5.50;;;;;;;8.05;97.11;98348.66;5080315;28;20209;-39
2023/03/29 12:04:42;;;;;;;5.65;3.92;;;;;;;8.11;97.99;98349.28;5086064;28;20483;-39
2023/03/29 12:07:17;;;;;;;6.97;4.63;;;;;;;8.06;98.87;98367.59;5064182;28;20119;-38
2023/03/29 12:09:52;;;;;;;8.18;4.30;;;;;;;7.97;99.02;98355.06;5079485;28;20047;-39